sensor_id;sensor_type;location;lat;lon;timestamp;P1;durP1;ratioP1;P2;durP2;ratioP2
47519;SDS011;33252;48.122;11.538;2023-04-15T00:00:37;9.88;;;5.65;;
47519;SDS011;33252;48.122;11.538;2023-04-15T00:03:03;7.20;;;5.50;;
47519;SDS011;33252;48.122;11.538;2023-04-15T00:05:31;7.88;;;4.10;;
47519;SDS011;33252;48.122;11.538;2023-04-15T00:07:57;8.50;;;3.90;;
47519;SDS011;33252;48.122;11.538;2023-04-15T00:10:23;9.07;;;3.30;;
47519;SDS011;33252;48.122;11.538;2023-04-15T00:12:49;7.25;;;3.47;;
47519;SDS011;33252;48.122;11.538;2023-04-15T00:15:16;6.50;;;4.50;;
47519;SDS011;33252;48.122;11.538;2023-04-15T00:17:42;6.43;;;2.80;;
47519;SDS011;33252;48.122;11.538;2023-04-15T00:20:07;10.50;;;3.42;;
47519;SDS011;33252;48.122;11.538;2023-04-15T00:22:34;3.38;;;2.50;;
47519;SDS011;33252;48.122;11.538;2023-04-15T00:25:00;3.85;;;2.40;;
47519;SDS011;33252;48.122;11.538;2023-04-15T00:27:26;2.72;;;2.40;;
47519;SDS011;33252;48.122;11.538;2023-04-15T00:29:52;3.45;;;2.40;;
47519;SDS011;33252;48.122;11.538;2023-04-15T00:32:18;5.03;;;2.70;;
47519;SDS011;33252;48.122;11.538;2023-04-15T00:34:44;7.30;;;2.55;;
47519;SDS011;33252;48.122;11.538;2023-04-15T00:37:11;4.32;;;2.42;;
47519;SDS011;33252;48.122;11.538;2023-04-15T00:39:36;6.45;;;2.05;;
47519;SDS011;33252;48.122;11.538;2023-04-15T00:42:05;6.45;;;2.67;;
47519;SDS011;33252;48.122;11.538;2023-04-15T00:44:31;7.88;;;2.60;;
47519;SDS011;33252;48.122;11.538;2023-04-15T00:46:58;9.50;;;2.80;;
47519;SDS011;33252;48.122;11.538;2023-04-15T00:49:24;4.28;;;2.45;;
47519;SDS011;33252;48.122;11.538;2023-04-15T00:51:51;9.05;;;2.20;;
47519;SDS011;33252;48.122;11.538;2023-04-15T00:54:17;4.95;;;2.58;;
47519;SDS011;33252;48.122;11.538;2023-04-15T00:56:43;4.80;;;2.50;;
47519;SDS011;33252;48.122;11.538;2023-04-15T00:59:08;8.00;;;3.67;;
47519;SDS011;33252;48.122;11.538;2023-04-15T01:01:35;6.07;;;2.88;;
47519;SDS011;33252;48.122;11.538;2023-04-15T01:04:02;5.88;;;3.00;;
47519;SDS011;33252;48.122;11.538;2023-04-15T01:06:29;5.15;;;2.60;;
47519;SDS011;33252;48.122;11.538;2023-04-15T01:08:56;9.13;;;3.08;;
47519;SDS011;33252;48.122;11.538;2023-04-15T01:11:23;6.55;;;2.30;;
47519;SDS011;33252;48.122;11.538;2023-04-15T01:13:49;4.65;;;2.20;;
47519;SDS011;33252;48.122;11.538;2023-04-15T01:16:16;5.38;;;2.58;;
47519;SDS011;33252;48.122;11.538;2023-04-15T01:18:43;6.78;;;3.03;;
47519;SDS011;33252;48.122;11.538;2023-04-15T01:21:10;6.82;;;2.80;;
47519;SDS011;33252;48.122;11.538;2023-04-15T01:23:36;4.93;;;3.00;;
47519;SDS011;33252;48.122;11.538;2023-04-15T01:26:03;6.28;;;2.92;;
47519;SDS011;33252;48.122;11.538;2023-04-15T01:28:36;7.53;;;3.33;;
47519;SDS011;33252;48.122;11.538;2023-04-15T01:31:08;4.90;;;2.80;;
47519;SDS011;33252;48.122;11.538;2023-04-15T01:33:37;5.68;;;3.17;;
47519;SDS011;33252;48.122;11.538;2023-04-15T01:36:04;6.45;;;3.33;;
47519;SDS011;33252;48.122;11.538;2023-04-15T01:38:34;5.88;;;3.00;;
47519;SDS011;33252;48.122;11.538;2023-04-15T01:41:01;9.00;;;3.05;;
47519;SDS011;33252;48.122;11.538;2023-04-15T01:43:28;6.13;;;2.67;;
47519;SDS011;33252;48.122;11.538;2023-04-15T01:45:54;4.80;;;3.30;;
47519;SDS011;33252;48.122;11.538;2023-04-15T01:48:20;5.53;;;2.95;;
47519;SDS011;33252;48.122;11.538;2023-04-15T01:50:47;7.13;;;3.15;;
47519;SDS011;33252;48.122;11.538;2023-04-15T01:53:12;9.88;;;2.72;;
47519;SDS011;33252;48.122;11.538;2023-04-15T01:55:38;4.38;;;2.38;;
47519;SDS011;33252;48.122;11.538;2023-04-15T01:58:04;8.10;;;3.10;;
47519;SDS011;33252;48.122;11.538;2023-04-15T02:00:30;8.38;;;3.20;;
47519;SDS011;33252;48.122;11.538;2023-04-15T02:02:56;5.22;;;2.75;;
47519;SDS011;33252;48.122;11.538;2023-04-15T02:05:23;5.82;;;2.47;;
47519;SDS011;33252;48.122;11.538;2023-04-15T02:07:49;6.20;;;3.13;;
47519;SDS011;33252;48.122;11.538;2023-04-15T02:10:15;4.63;;;2.72;;
47519;SDS011;33252;48.122;11.538;2023-04-15T02:12:41;6.63;;;3.00;;
47519;SDS011;33252;48.122;11.538;2023-04-15T02:15:07;3.67;;;2.38;;
47519;SDS011;33252;48.122;11.538;2023-04-15T02:17:34;5.72;;;2.67;;
47519;SDS011;33252;48.122;11.538;2023-04-15T02:20:00;5.03;;;2.92;;
47519;SDS011;33252;48.122;11.538;2023-04-15T02:22:28;7.78;;;3.33;;
47519;SDS011;33252;48.122;11.538;2023-04-15T02:24:54;5.82;;;2.40;;
47519;SDS011;33252;48.122;11.538;2023-04-15T02:27:20;9.38;;;3.63;;
47519;SDS011;33252;48.122;11.538;2023-04-15T02:29:46;5.10;;;3.17;;
47519;SDS011;33252;48.122;11.538;2023-04-15T02:32:14;5.43;;;2.85;;
47519;SDS011;33252;48.122;11.538;2023-04-15T02:34:40;6.40;;;3.47;;
47519;SDS011;33252;48.122;11.538;2023-04-15T02:37:10;4.95;;;2.53;;
47519;SDS011;33252;48.122;11.538;2023-04-15T02:39:36;6.10;;;2.75;;
47519;SDS011;33252;48.122;11.538;2023-04-15T02:42:03;5.55;;;2.42;;
47519;SDS011;33252;48.122;11.538;2023-04-15T02:44:30;3.78;;;2.88;;
47519;SDS011;33252;48.122;11.538;2023-04-15T02:46:56;6.00;;;2.72;;
47519;SDS011;33252;48.122;11.538;2023-04-15T02:49:23;6.78;;;2.72;;
47519;SDS011;33252;48.122;11.538;2023-04-15T02:51:49;4.53;;;2.42;;
47519;SDS011;33252;48.122;11.538;2023-04-15T02:54:16;5.93;;;2.80;;
47519;SDS011;33252;48.122;11.538;2023-04-15T02:56:42;3.88;;;2.60;;
47519;SDS011;33252;48.122;11.538;2023-04-15T02:59:08;4.95;;;2.15;;
47519;SDS011;33252;48.122;11.538;2023-04-15T03:01:33;7.57;;;2.72;;
47519;SDS011;33252;48.122;11.538;2023-04-15T03:03:59;6.05;;;2.30;;
47519;SDS011;33252;48.122;11.538;2023-04-15T03:06:25;4.50;;;2.45;;
47519;SDS011;33252;48.122;11.538;2023-04-15T03:08:51;7.57;;;2.88;;
47519;SDS011;33252;48.122;11.538;2023-04-15T03:11:16;3.97;;;2.60;;
47519;SDS011;33252;48.122;11.538;2023-04-15T03:13:43;7.43;;;2.88;;
47519;SDS011;33252;48.122;11.538;2023-04-15T03:16:09;5.50;;;2.88;;
47519;SDS011;33252;48.122;11.538;2023-04-15T03:18:35;7.15;;;2.75;;
47519;SDS011;33252;48.122;11.538;2023-04-15T03:21:00;6.03;;;2.53;;
47519;SDS011;33252;48.122;11.538;2023-04-15T03:23:27;5.53;;;2.50;;
47519;SDS011;33252;48.122;11.538;2023-04-15T03:25:52;8.05;;;2.65;;
47519;SDS011;33252;48.122;11.538;2023-04-15T03:28:22;7.05;;;2.42;;
47519;SDS011;33252;48.122;11.538;2023-04-15T03:30:48;7.18;;;2.25;;
47519;SDS011;33252;48.122;11.538;2023-04-15T03:33:14;6.63;;;2.67;;
47519;SDS011;33252;48.122;11.538;2023-04-15T03:35:39;6.38;;;2.25;;
47519;SDS011;33252;48.122;11.538;2023-04-15T03:38:05;6.35;;;2.58;;
47519;SDS011;33252;48.122;11.538;2023-04-15T03:45:51;7.20;;;3.35;;
47519;SDS011;33252;48.122;11.538;2023-04-15T03:48:17;6.05;;;2.22;;
47519;SDS011;33252;48.122;11.538;2023-04-15T03:50:43;4.43;;;2.55;;
47519;SDS011;33252;48.122;11.538;2023-04-15T03:53:08;5.00;;;2.40;;
47519;SDS011;33252;48.122;11.538;2023-04-15T03:55:34;4.38;;;2.40;;
47519;SDS011;33252;48.122;11.538;2023-04-15T03:58:02;5.53;;;2.40;;
47519;SDS011;33252;48.122;11.538;2023-04-15T04:00:27;5.75;;;2.40;;
47519;SDS011;33252;48.122;11.538;2023-04-15T04:02:53;6.10;;;2.60;;
47519;SDS011;33252;48.122;11.538;2023-04-15T04:05:19;5.63;;;2.63;;
47519;SDS011;33252;48.122;11.538;2023-04-15T04:07:44;5.10;;;2.03;;
47519;SDS011;33252;48.122;11.538;2023-04-15T04:10:10;10.27;;;2.17;;
47519;SDS011;33252;48.122;11.538;2023-04-15T04:12:36;8.00;;;1.90;;
47519;SDS011;33252;48.122;11.538;2023-04-15T04:15:01;6.05;;;2.33;;
47519;SDS011;33252;48.122;11.538;2023-04-15T04:17:27;8.73;;;2.90;;
47519;SDS011;33252;48.122;11.538;2023-04-15T04:19:53;6.05;;;1.98;;
47519;SDS011;33252;48.122;11.538;2023-04-15T04:22:21;6.57;;;2.50;;
47519;SDS011;33252;48.122;11.538;2023-04-15T04:24:48;4.40;;;2.30;;
47519;SDS011;33252;48.122;11.538;2023-04-15T04:27:14;4.88;;;2.42;;
47519;SDS011;33252;48.122;11.538;2023-04-15T04:29:40;5.60;;;2.72;;
47519;SDS011;33252;48.122;11.538;2023-04-15T04:32:06;4.13;;;1.73;;
47519;SDS011;33252;48.122;11.538;2023-04-15T04:34:31;6.55;;;2.60;;
47519;SDS011;33252;48.122;11.538;2023-04-15T04:36:57;4.00;;;1.85;;
47519;SDS011;33252;48.122;11.538;2023-04-15T04:39:23;6.80;;;2.00;;
47519;SDS011;33252;48.122;11.538;2023-04-15T04:41:48;3.42;;;1.60;;
47519;SDS011;33252;48.122;11.538;2023-04-15T04:44:16;3.30;;;1.80;;
47519;SDS011;33252;48.122;11.538;2023-04-15T04:46:42;5.88;;;2.60;;
47519;SDS011;33252;48.122;11.538;2023-04-15T04:49:07;4.82;;;2.65;;
47519;SDS011;33252;48.122;11.538;2023-04-15T04:51:33;5.18;;;2.00;;
47519;SDS011;33252;48.122;11.538;2023-04-15T04:53:59;3.47;;;2.28;;
47519;SDS011;33252;48.122;11.538;2023-04-15T04:56:25;4.55;;;1.90;;
47519;SDS011;33252;48.122;11.538;2023-04-15T04:58:51;4.60;;;1.80;;
47519;SDS011;33252;48.122;11.538;2023-04-15T05:01:16;3.50;;;1.70;;
47519;SDS011;33252;48.122;11.538;2023-04-15T05:03:42;5.45;;;1.95;;
47519;SDS011;33252;48.122;11.538;2023-04-15T05:06:08;6.70;;;2.05;;
47519;SDS011;33252;48.122;11.538;2023-04-15T05:08:34;4.65;;;1.70;;
47519;SDS011;33252;48.122;11.538;2023-04-15T05:11:00;5.78;;;2.03;;
47519;SDS011;33252;48.122;11.538;2023-04-15T05:13:26;4.93;;;1.90;;
47519;SDS011;33252;48.122;11.538;2023-04-15T05:15:52;4.32;;;1.75;;
47519;SDS011;33252;48.122;11.538;2023-04-15T05:18:18;6.07;;;1.70;;
47519;SDS011;33252;48.122;11.538;2023-04-15T05:20:44;3.88;;;1.83;;
47519;SDS011;33252;48.122;11.538;2023-04-15T05:23:10;4.53;;;2.05;;
47519;SDS011;33252;48.122;11.538;2023-04-15T05:25:36;7.30;;;1.98;;
47519;SDS011;33252;48.122;11.538;2023-04-15T05:28:01;4.25;;;1.75;;
47519;SDS011;33252;48.122;11.538;2023-04-15T05:30:27;3.22;;;2.00;;
47519;SDS011;33252;48.122;11.538;2023-04-15T05:32:53;2.67;;;1.30;;
47519;SDS011;33252;48.122;11.538;2023-04-15T05:35:18;3.78;;;1.65;;
47519;SDS011;33252;48.122;11.538;2023-04-15T05:37:44;5.03;;;1.42;;
47519;SDS011;33252;48.122;11.538;2023-04-15T05:40:10;6.07;;;1.52;;
47519;SDS011;33252;48.122;11.538;2023-04-15T05:42:36;6.60;;;1.35;;
47519;SDS011;33252;48.122;11.538;2023-04-15T05:45:01;5.15;;;1.48;;
47519;SDS011;33252;48.122;11.538;2023-04-15T05:47:29;6.38;;;1.50;;
47519;SDS011;33252;48.122;11.538;2023-04-15T05:49:55;6.53;;;1.70;;
47519;SDS011;33252;48.122;11.538;2023-04-15T05:52:23;5.40;;;2.75;;
47519;SDS011;33252;48.122;11.538;2023-04-15T05:54:48;2.83;;;1.20;;
47519;SDS011;33252;48.122;11.538;2023-04-15T05:57:14;4.63;;;1.55;;
47519;SDS011;33252;48.122;11.538;2023-04-15T05:59:40;2.05;;;0.93;;
47519;SDS011;33252;48.122;11.538;2023-04-15T06:02:06;2.65;;;1.40;;
47519;SDS011;33252;48.122;11.538;2023-04-15T06:04:33;3.95;;;1.88;;
47519;SDS011;33252;48.122;11.538;2023-04-15T06:06:59;3.83;;;1.45;;
47519;SDS011;33252;48.122;11.538;2023-04-15T06:09:25;3.22;;;1.48;;
47519;SDS011;33252;48.122;11.538;2023-04-15T06:11:51;7.13;;;1.85;;
47519;SDS011;33252;48.122;11.538;2023-04-15T06:14:17;3.65;;;1.27;;
47519;SDS011;33252;48.122;11.538;2023-04-15T06:16:42;3.20;;;1.38;;
47519;SDS011;33252;48.122;11.538;2023-04-15T06:19:08;4.80;;;2.40;;
47519;SDS011;33252;48.122;11.538;2023-04-15T06:21:33;4.45;;;1.30;;
47519;SDS011;33252;48.122;11.538;2023-04-15T06:23:59;6.70;;;1.50;;
47519;SDS011;33252;48.122;11.538;2023-04-15T06:26:25;5.30;;;1.70;;
47519;SDS011;33252;48.122;11.538;2023-04-15T06:28:52;7.20;;;2.17;;
47519;SDS011;33252;48.122;11.538;2023-04-15T06:31:17;5.55;;;1.05;;
47519;SDS011;33252;48.122;11.538;2023-04-15T06:33:43;4.85;;;1.23;;
47519;SDS011;33252;48.122;11.538;2023-04-15T06:36:09;4.53;;;1.25;;
47519;SDS011;33252;48.122;11.538;2023-04-15T06:38:35;4.45;;;1.52;;
47519;SDS011;33252;48.122;11.538;2023-04-15T06:41:01;2.50;;;1.00;;
47519;SDS011;33252;48.122;11.538;2023-04-15T06:43:27;3.08;;;1.35;;
47519;SDS011;33252;48.122;11.538;2023-04-15T06:45:53;2.60;;;0.93;;
47519;SDS011;33252;48.122;11.538;2023-04-15T06:48:19;3.70;;;1.10;;
47519;SDS011;33252;48.122;11.538;2023-04-15T06:50:44;3.00;;;0.93;;
47519;SDS011;33252;48.122;11.538;2023-04-15T06:53:10;3.25;;;1.05;;
47519;SDS011;33252;48.122;11.538;2023-04-15T06:55:36;5.70;;;1.17;;
47519;SDS011;33252;48.122;11.538;2023-04-15T06:58:02;4.25;;;1.17;;
47519;SDS011;33252;48.122;11.538;2023-04-15T07:00:27;3.85;;;0.80;;
47519;SDS011;33252;48.122;11.538;2023-04-15T07:02:53;4.32;;;1.27;;
47519;SDS011;33252;48.122;11.538;2023-04-15T07:05:19;4.40;;;1.83;;
47519;SDS011;33252;48.122;11.538;2023-04-15T07:07:45;5.18;;;1.33;;
47519;SDS011;33252;48.122;11.538;2023-04-15T07:10:10;5.63;;;1.35;;
47519;SDS011;33252;48.122;11.538;2023-04-15T07:12:36;2.47;;;1.05;;
47519;SDS011;33252;48.122;11.538;2023-04-15T07:15:02;3.08;;;0.93;;
47519;SDS011;33252;48.122;11.538;2023-04-15T07:17:29;5.30;;;0.70;;
47519;SDS011;33252;48.122;11.538;2023-04-15T07:19:54;2.47;;;0.80;;
47519;SDS011;33252;48.122;11.538;2023-04-15T07:22:20;3.38;;;1.23;;
47519;SDS011;33252;48.122;11.538;2023-04-15T07:24:46;3.42;;;1.05;;
47519;SDS011;33252;48.122;11.538;2023-04-15T07:27:11;5.13;;;1.90;;
47519;SDS011;33252;48.122;11.538;2023-04-15T07:29:37;2.88;;;0.80;;
47519;SDS011;33252;48.122;11.538;2023-04-15T07:32:03;3.45;;;1.00;;
47519;SDS011;33252;48.122;11.538;2023-04-15T07:34:29;3.42;;;0.80;;
47519;SDS011;33252;48.122;11.538;2023-04-15T07:36:54;2.53;;;0.90;;
47519;SDS011;33252;48.122;11.538;2023-04-15T07:39:20;2.17;;;0.93;;
47519;SDS011;33252;48.122;11.538;2023-04-15T07:41:46;5.32;;;0.95;;
47519;SDS011;33252;48.122;11.538;2023-04-15T07:44:13;2.20;;;0.60;;
47519;SDS011;33252;48.122;11.538;2023-04-15T07:46:38;1.63;;;0.60;;
47519;SDS011;33252;48.122;11.538;2023-04-15T07:49:04;2.70;;;0.98;;
47519;SDS011;33252;48.122;11.538;2023-04-15T07:51:30;3.28;;;1.10;;
47519;SDS011;33252;48.122;11.538;2023-04-15T07:53:56;5.32;;;1.10;;
47519;SDS011;33252;48.122;11.538;2023-04-15T07:56:21;2.92;;;0.82;;
47519;SDS011;33252;48.122;11.538;2023-04-15T07:58:47;3.17;;;0.90;;
47519;SDS011;33252;48.122;11.538;2023-04-15T08:01:13;3.35;;;1.17;;
47519;SDS011;33252;48.122;11.538;2023-04-15T08:03:38;3.00;;;1.00;;
47519;SDS011;33252;48.122;11.538;2023-04-15T08:06:05;2.80;;;1.00;;
47519;SDS011;33252;48.122;11.538;2023-04-15T08:08:30;2.42;;;0.70;;
47519;SDS011;33252;48.122;11.538;2023-04-15T08:10:57;4.78;;;1.55;;
47519;SDS011;33252;48.122;11.538;2023-04-15T08:13:22;1.80;;;1.00;;
47519;SDS011;33252;48.122;11.538;2023-04-15T08:15:52;3.50;;;0.95;;
47519;SDS011;33252;48.122;11.538;2023-04-15T08:18:38;4.55;;;1.02;;
47519;SDS011;33252;48.122;11.538;2023-04-15T08:21:03;4.80;;;1.23;;
47519;SDS011;33252;48.122;11.538;2023-04-15T08:23:30;2.28;;;0.98;;
47519;SDS011;33252;48.122;11.538;2023-04-15T08:25:56;4.97;;;1.35;;
47519;SDS011;33252;48.122;11.538;2023-04-15T08:28:22;5.85;;;0.77;;
47519;SDS011;33252;48.122;11.538;2023-04-15T08:30:48;5.72;;;1.35;;
47519;SDS011;33252;48.122;11.538;2023-04-15T08:33:13;3.72;;;1.00;;
47519;SDS011;33252;48.122;11.538;2023-04-15T08:35:39;2.65;;;0.85;;
47519;SDS011;33252;48.122;11.538;2023-04-15T08:38:05;4.13;;;1.13;;
47519;SDS011;33252;48.122;11.538;2023-04-15T08:40:34;4.18;;;1.65;;
47519;SDS011;33252;48.122;11.538;2023-04-15T08:43:20;3.40;;;0.95;;
47519;SDS011;33252;48.122;11.538;2023-04-15T08:45:51;2.70;;;1.08;;
47519;SDS011;33252;48.122;11.538;2023-04-15T08:48:17;6.35;;;2.08;;
47519;SDS011;33252;48.122;11.538;2023-04-15T08:50:44;5.40;;;1.20;;
47519;SDS011;33252;48.122;11.538;2023-04-15T08:53:10;3.80;;;1.08;;
47519;SDS011;33252;48.122;11.538;2023-04-15T08:55:39;3.83;;;1.23;;
47519;SDS011;33252;48.122;11.538;2023-04-15T08:58:10;4.28;;;1.80;;
47519;SDS011;33252;48.122;11.538;2023-04-15T09:00:37;4.43;;;1.48;;
47519;SDS011;33252;48.122;11.538;2023-04-15T09:03:04;3.55;;;1.38;;
47519;SDS011;33252;48.122;11.538;2023-04-15T09:05:31;4.72;;;1.50;;
47519;SDS011;33252;48.122;11.538;2023-04-15T09:07:57;4.63;;;1.85;;
47519;SDS011;33252;48.122;11.538;2023-04-15T09:10:23;5.65;;;1.77;;
47519;SDS011;33252;48.122;11.538;2023-04-15T09:12:49;2.50;;;1.38;;
47519;SDS011;33252;48.122;11.538;2023-04-15T09:15:16;4.20;;;1.60;;
47519;SDS011;33252;48.122;11.538;2023-04-15T09:17:42;3.15;;;1.67;;
47519;SDS011;33252;48.122;11.538;2023-04-15T09:20:09;4.20;;;1.70;;
47519;SDS011;33252;48.122;11.538;2023-04-15T09:22:37;2.13;;;1.10;;
47519;SDS011;33252;48.122;11.538;2023-04-15T09:27:55;2.85;;;1.60;;
47519;SDS011;33252;48.122;11.538;2023-04-15T09:30:27;8.57;;;2.35;;
47519;SDS011;33252;48.122;11.538;2023-04-15T09:32:59;5.57;;;1.75;;
47519;SDS011;33252;48.122;11.538;2023-04-15T09:35:27;4.97;;;2.17;;
47519;SDS011;33252;48.122;11.538;2023-04-15T09:37:53;5.47;;;2.42;;
47519;SDS011;33252;48.122;11.538;2023-04-15T09:40:33;6.15;;;2.10;;
47519;SDS011;33252;48.122;11.538;2023-04-15T09:43:04;3.55;;;2.20;;
47519;SDS011;33252;48.122;11.538;2023-04-15T09:45:31;4.30;;;2.08;;
47519;SDS011;33252;48.122;11.538;2023-04-15T09:47:57;3.25;;;2.25;;
47519;SDS011;33252;48.122;11.538;2023-04-15T09:50:27;6.00;;;2.15;;
47519;SDS011;33252;48.122;11.538;2023-04-15T09:52:54;3.45;;;2.05;;
47519;SDS011;33252;48.122;11.538;2023-04-15T09:55:20;3.85;;;2.53;;
47519;SDS011;33252;48.122;11.538;2023-04-15T09:57:46;3.92;;;2.33;;
47519;SDS011;33252;48.122;11.538;2023-04-15T10:00:12;5.40;;;2.15;;
47519;SDS011;33252;48.122;11.538;2023-04-15T10:02:39;4.97;;;2.20;;
47519;SDS011;33252;48.122;11.538;2023-04-15T10:05:06;6.40;;;2.00;;
47519;SDS011;33252;48.122;11.538;2023-04-15T10:07:35;6.30;;;2.10;;
47519;SDS011;33252;48.122;11.538;2023-04-15T10:10:00;3.67;;;2.20;;
47519;SDS011;33252;48.122;11.538;2023-04-15T10:12:28;6.38;;;2.72;;
47519;SDS011;33252;48.122;11.538;2023-04-15T10:14:57;4.13;;;2.00;;
47519;SDS011;33252;48.122;11.538;2023-04-15T10:17:26;4.38;;;2.60;;
47519;SDS011;33252;48.122;11.538;2023-04-15T10:19:59;6.07;;;2.70;;
47519;SDS011;33252;48.122;11.538;2023-04-15T10:22:27;3.90;;;2.42;;
47519;SDS011;33252;48.122;11.538;2023-04-15T10:24:53;5.93;;;3.53;;
47519;SDS011;33252;48.122;11.538;2023-04-15T10:27:20;5.82;;;2.80;;
47519;SDS011;33252;48.122;11.538;2023-04-15T10:29:47;5.30;;;2.92;;
47519;SDS011;33252;48.122;11.538;2023-04-15T10:32:14;4.43;;;2.65;;
47519;SDS011;33252;48.122;11.538;2023-04-15T10:34:44;4.13;;;2.65;;
47519;SDS011;33252;48.122;11.538;2023-04-15T10:37:11;6.65;;;3.28;;
47519;SDS011;33252;48.122;11.538;2023-04-15T10:39:37;5.65;;;2.55;;
47519;SDS011;33252;48.122;11.538;2023-04-15T10:42:12;4.90;;;2.53;;
47519;SDS011;33252;48.122;11.538;2023-04-15T10:44:48;4.40;;;3.13;;
47519;SDS011;33252;48.122;11.538;2023-04-15T10:47:19;6.03;;;3.47;;
47519;SDS011;33252;48.122;11.538;2023-04-15T10:49:58;5.15;;;4.05;;
47519;SDS011;33252;48.122;11.538;2023-04-15T10:52:25;6.10;;;3.13;;
47519;SDS011;33252;48.122;11.538;2023-04-15T10:55:02;5.20;;;2.75;;
47519;SDS011;33252;48.122;11.538;2023-04-15T10:57:40;3.47;;;2.70;;
47519;SDS011;33252;48.122;11.538;2023-04-15T11:00:16;7.68;;;3.20;;
47519;SDS011;33252;48.122;11.538;2023-04-15T11:02:47;7.40;;;2.72;;
47519;SDS011;33252;48.122;11.538;2023-04-15T11:05:18;5.95;;;3.13;;
47519;SDS011;33252;48.122;11.538;2023-04-15T11:12:41;4.85;;;3.25;;
47519;SDS011;33252;48.122;11.538;2023-04-15T11:17:57;4.63;;;3.58;;
47519;SDS011;33252;48.122;11.538;2023-04-15T11:20:26;6.82;;;3.90;;
47519;SDS011;33252;48.122;11.538;2023-04-15T11:22:53;4.57;;;3.20;;
47519;SDS011;33252;48.122;11.538;2023-04-15T11:25:29;5.93;;;3.35;;
47519;SDS011;33252;48.122;11.538;2023-04-15T11:27:57;7.80;;;3.85;;
47519;SDS011;33252;48.122;11.538;2023-04-15T11:30:25;5.38;;;3.40;;
47519;SDS011;33252;48.122;11.538;2023-04-15T11:32:53;7.15;;;3.63;;
47519;SDS011;33252;48.122;11.538;2023-04-15T11:35:22;4.47;;;3.60;;
47519;SDS011;33252;48.122;11.538;2023-04-15T11:37:48;7.55;;;3.60;;
47519;SDS011;33252;48.122;11.538;2023-04-15T11:40:14;6.07;;;3.15;;
47519;SDS011;33252;48.122;11.538;2023-04-15T11:42:42;6.22;;;4.07;;
47519;SDS011;33252;48.122;11.538;2023-04-15T11:45:09;6.20;;;3.42;;
47519;SDS011;33252;48.122;11.538;2023-04-15T11:47:39;7.55;;;4.22;;
47519;SDS011;33252;48.122;11.538;2023-04-15T11:50:16;4.70;;;3.33;;
47519;SDS011;33252;48.122;11.538;2023-04-15T11:52:52;6.68;;;3.35;;
47519;SDS011;33252;48.122;11.538;2023-04-15T11:55:22;5.05;;;3.20;;
47519;SDS011;33252;48.122;11.538;2023-04-15T12:00:36;7.28;;;4.03;;
47519;SDS011;33252;48.122;11.538;2023-04-15T12:06:16;6.00;;;3.53;;
47519;SDS011;33252;48.122;11.538;2023-04-15T12:08:56;4.70;;;3.40;;
47519;SDS011;33252;48.122;11.538;2023-04-15T12:16:40;6.68;;;3.70;;
47519;SDS011;33252;48.122;11.538;2023-04-15T12:19:10;10.20;;;4.13;;
47519;SDS011;33252;48.122;11.538;2023-04-15T12:21:38;6.78;;;3.80;;
47519;SDS011;33252;48.122;11.538;2023-04-15T12:24:07;5.78;;;3.67;;
47519;SDS011;33252;48.122;11.538;2023-04-15T12:26:35;4.93;;;3.20;;
47519;SDS011;33252;48.122;11.538;2023-04-15T12:29:01;5.82;;;4.22;;
47519;SDS011;33252;48.122;11.538;2023-04-15T12:31:32;5.38;;;3.42;;
47519;SDS011;33252;48.122;11.538;2023-04-15T12:33:59;5.43;;;4.50;;
47519;SDS011;33252;48.122;11.538;2023-04-15T12:36:25;8.50;;;4.03;;
47519;SDS011;33252;48.122;11.538;2023-04-15T12:38:52;9.05;;;3.92;;
47519;SDS011;33252;48.122;11.538;2023-04-15T12:41:21;6.35;;;3.83;;
47519;SDS011;33252;48.122;11.538;2023-04-15T12:43:48;9.07;;;4.13;;
47519;SDS011;33252;48.122;11.538;2023-04-15T12:46:14;4.82;;;3.38;;
47519;SDS011;33252;48.122;11.538;2023-04-15T12:48:40;4.78;;;3.25;;
47519;SDS011;33252;48.122;11.538;2023-04-15T12:51:06;4.88;;;3.35;;
47519;SDS011;33252;48.122;11.538;2023-04-15T12:53:32;7.47;;;3.10;;
47519;SDS011;33252;48.122;11.538;2023-04-15T12:55:57;5.88;;;3.00;;
47519;SDS011;33252;48.122;11.538;2023-04-15T12:58:23;3.78;;;2.63;;
47519;SDS011;33252;48.122;11.538;2023-04-15T13:00:49;2.90;;;2.35;;
47519;SDS011;33252;48.122;11.538;2023-04-15T13:03:15;3.05;;;2.22;;
47519;SDS011;33252;48.122;11.538;2023-04-15T13:05:41;7.32;;;2.17;;
47519;SDS011;33252;48.122;11.538;2023-04-15T13:08:06;3.78;;;2.15;;
47519;SDS011;33252;48.122;11.538;2023-04-15T13:10:32;4.53;;;1.70;;
47519;SDS011;33252;48.122;11.538;2023-04-15T13:13:00;4.75;;;1.80;;
47519;SDS011;33252;48.122;11.538;2023-04-15T13:15:27;3.10;;;2.20;;
47519;SDS011;33252;48.122;11.538;2023-04-15T13:17:53;5.47;;;2.70;;
47519;SDS011;33252;48.122;11.538;2023-04-15T13:20:19;5.85;;;2.00;;
47519;SDS011;33252;48.122;11.538;2023-04-15T13:22:44;3.05;;;2.08;;
47519;SDS011;33252;48.122;11.538;2023-04-15T13:25:10;3.78;;;1.52;;
47519;SDS011;33252;48.122;11.538;2023-04-15T13:27:36;2.33;;;1.30;;
47519;SDS011;33252;48.122;11.538;2023-04-15T13:30:02;3.97;;;2.20;;
47519;SDS011;33252;48.122;11.538;2023-04-15T13:32:29;4.38;;;2.15;;
47519;SDS011;33252;48.122;11.538;2023-04-15T13:34:55;7.00;;;2.67;;
47519;SDS011;33252;48.122;11.538;2023-04-15T13:37:24;4.32;;;2.45;;
47519;SDS011;33252;48.122;11.538;2023-04-15T13:39:54;6.07;;;2.72;;
47519;SDS011;33252;48.122;11.538;2023-04-15T13:42:20;4.35;;;2.75;;
47519;SDS011;33252;48.122;11.538;2023-04-15T13:44:46;7.57;;;2.60;;
47519;SDS011;33252;48.122;11.538;2023-04-15T13:47:13;6.75;;;2.83;;
47519;SDS011;33252;48.122;11.538;2023-04-15T13:49:40;5.30;;;3.08;;
47519;SDS011;33252;48.122;11.538;2023-04-15T13:52:05;4.72;;;2.83;;
47519;SDS011;33252;48.122;11.538;2023-04-15T13:54:31;5.07;;;3.60;;
47519;SDS011;33252;48.122;11.538;2023-04-15T13:56:57;6.60;;;4.10;;
47519;SDS011;33252;48.122;11.538;2023-04-15T13:59:22;8.02;;;3.55;;
47519;SDS011;33252;48.122;11.538;2023-04-15T14:01:48;5.25;;;3.13;;
47519;SDS011;33252;48.122;11.538;2023-04-15T14:04:14;6.55;;;3.17;;
47519;SDS011;33252;48.122;11.538;2023-04-15T14:06:39;4.13;;;2.60;;
47519;SDS011;33252;48.122;11.538;2023-04-15T14:09:05;3.95;;;2.65;;
47519;SDS011;33252;48.122;11.538;2023-04-15T14:11:31;9.38;;;3.58;;
47519;SDS011;33252;48.122;11.538;2023-04-15T14:13:59;5.55;;;2.92;;
47519;SDS011;33252;48.122;11.538;2023-04-15T14:16:25;5.70;;;3.30;;
47519;SDS011;33252;48.122;11.538;2023-04-15T14:18:50;5.68;;;2.60;;
47519;SDS011;33252;48.122;11.538;2023-04-15T14:21:16;5.22;;;3.42;;
47519;SDS011;33252;48.122;11.538;2023-04-15T14:23:42;5.57;;;3.17;;
47519;SDS011;33252;48.122;11.538;2023-04-15T14:26:08;4.70;;;4.13;;
47519;SDS011;33252;48.122;11.538;2023-04-15T14:28:33;5.32;;;2.63;;
47519;SDS011;33252;48.122;11.538;2023-04-15T14:30:59;3.05;;;2.30;;
47519;SDS011;33252;48.122;11.538;2023-04-15T14:33:25;2.88;;;1.63;;
47519;SDS011;33252;48.122;11.538;2023-04-15T14:35:51;5.18;;;2.22;;
47519;SDS011;33252;48.122;11.538;2023-04-15T14:38:17;5.38;;;2.47;;
47519;SDS011;33252;48.122;11.538;2023-04-15T14:40:42;2.30;;;1.70;;
47519;SDS011;33252;48.122;11.538;2023-04-15T14:43:09;4.53;;;2.45;;
47519;SDS011;33252;48.122;11.538;2023-04-15T14:45:36;3.33;;;2.50;;
47519;SDS011;33252;48.122;11.538;2023-04-15T14:48:02;3.00;;;2.10;;
47519;SDS011;33252;48.122;11.538;2023-04-15T14:50:27;3.47;;;2.58;;
47519;SDS011;33252;48.122;11.538;2023-04-15T14:52:53;3.42;;;2.22;;
47519;SDS011;33252;48.122;11.538;2023-04-15T14:55:19;3.60;;;2.08;;
47519;SDS011;33252;48.122;11.538;2023-04-15T14:57:44;2.83;;;2.33;;